Startup, Washington
Current Conditions -  °F | °C
As of 12:53 PM on Tuesday 25 Nov 2014 (Local Time) from KPAE Reporting Station
Haze Haze  
Wind Chill:   Ceiling: 300
Heat Index:   Visibility: 1.5mi
Dew Point:   Wind: 6mph
Humidity: 93%   Direction: 20°NNE
Pressure: 30.2"   Gusts: NA
Location:  47.87°N, 121.74°W
Report Text: KPAE 252053Z 02005KT 1 1/2SM BR OVC003 08/07 A3020 RMK AO2 SLP227 60000 T00780067 58007
Loading
Personal Weather Stations






























Interactive Weather Map New forecast layout! Learn more

10-Day Weather Forecast

Advertisements
Track Severe Weather on mobile